Time;durP1;ratioP1;P1;durP2;ratioP2;P2;SDS_P1;SDS_P2;PMS_P1;PMS_P2;Temp;Humidity;BMP_temperature;BMP_pressure;BME280_temperature;BME280_humidity;BME280_pressure;Samples;Min_cycle;Max_cycle;Signal;HPM_P1;HPM_P2
2021/12/28 00:01:06;;;;;;;100.32;35.05;;;;;;;4.57;100.00;99448.00;5051661;28;20470;-80
2021/12/28 00:03:32;;;;;;;134.80;38.95;;;;;;;4.54;100.00;99446.47;5051417;28;20061;-79
2021/12/28 00:05:58;;;;;;;131.05;38.40;;;;;;;4.55;100.00;99447.28;5051951;28;20091;-79
2021/12/28 00:08:24;;;;;;;148.25;40.35;;;;;;;4.58;100.00;99447.03;5052000;28;20056;-79
2021/12/28 00:10:49;;;;;;;132.95;39.92;;;;;;;4.67;100.00;99434.84;5051437;28;20473;-79
2021/12/28 00:13:16;;;;;;;143.88;40.78;;;;;;;4.74;100.00;99436.78;5051703;28;20036;-79
2021/12/28 00:16:25;;;;;;;103.63;33.60;;;;;;;4.80;100.00;99432.78;5050144;28;20056;-79
2021/12/28 00:18:28;;;;;;;148.60;40.50;;;;;;;4.95;100.00;99420.88;5051416;28;20128;-78
2021/12/28 00:20:56;;;;;;;152.38;39.28;;;;;;;5.07;100.00;99436.56;5049877;28;20579;-79
2021/12/28 00:23:25;;;;;;;154.48;39.28;;;;;;;5.16;100.00;99430.47;5052244;28;20381;-79
2021/12/28 00:25:53;;;;;;;153.02;39.75;;;;;;;5.27;100.00;99432.97;5053549;28;20630;-79
2021/12/28 00:28:19;;;;;;;126.75;35.28;;;;;;;5.33;100.00;99431.59;5055964;28;20033;-79
2021/12/28 00:30:47;;;;;;;139.23;38.92;;;;;;;5.39;100.00;99432.81;5055859;28;20033;-78
2021/12/28 00:33:13;;;;;;;138.25;36.55;;;;;;;5.43;100.00;99434.19;5056796;28;20039;-78
2021/12/28 00:35:40;;;;;;;162.18;37.40;;;;;;;5.46;100.00;99440.03;5055745;28;20079;-78
2021/12/28 00:38:08;;;;;;;133.73;35.28;;;;;;;5.51;100.00;99433.50;5056672;28;20068;-78
2021/12/28 00:40:34;;;;;;;126.32;34.67;;;;;;;5.55;100.00;99433.06;5056702;28;20029;-80
2021/12/28 00:43:01;;;;;;;135.60;34.42;;;;;;;5.59;100.00;99429.19;5057196;28;20098;-78
2021/12/28 00:45:27;;;;;;;135.55;34.17;;;;;;;5.58;100.00;99426.69;5056585;28;20457;-78
2021/12/28 00:47:52;;;;;;;125.70;33.58;;;;;;;5.59;100.00;99420.44;5055482;28;20036;-78
2021/12/28 00:50:19;;;;;;;116.15;33.72;;;;;;;5.63;100.00;99427.94;5054340;28;20055;-77
2021/12/28 00:52:45;;;;;;;131.07;33.42;;;;;;;5.63;100.00;99421.81;5053831;28;20032;-78
2021/12/28 00:55:12;;;;;;;123.95;33.03;;;;;;;5.63;100.00;99411.28;5055479;28;20040;-77
2021/12/28 00:57:37;;;;;;;107.22;28.73;;;;;;;5.64;100.00;99403.22;5054594;28;20041;-78
2021/12/28 01:00:06;;;;;;;121.55;30.92;;;;;;;5.59;100.00;99397.50;5054897;28;20044;-78
2021/12/28 01:02:31;;;;;;;107.03;27.55;;;;;;;5.46;100.00;99397.84;5054771;28;20111;-77
2021/12/28 01:04:57;;;;;;;119.10;28.83;;;;;;;5.34;100.00;99398.94;5053982;28;20226;-77
2021/12/28 01:07:22;;;;;;;116.03;27.52;;;;;;;5.23;100.00;99394.66;5054905;28;20037;-77
2021/12/28 01:09:48;;;;;;;109.10;26.63;;;;;;;5.15;100.00;99391.91;5054173;28;20548;-78
2021/12/28 01:12:13;;;;;;;105.50;26.60;;;;;;;5.09;100.00;99390.66;5054861;28;20036;-78
2021/12/28 01:14:39;;;;;;;102.03;24.55;;;;;;;5.10;100.00;99388.81;5054071;28;20455;-79
2021/12/28 01:17:06;;;;;;;109.57;26.38;;;;;;;5.07;100.00;99381.19;5054564;28;20041;-79
2021/12/28 01:19:32;;;;;;;106.93;23.83;;;;;;;5.02;100.00;99391.34;5053477;28;20040;-79
2021/12/28 01:21:58;;;;;;;99.85;23.13;;;;;;;4.97;100.00;99398.81;5053911;28;20041;-79
2021/12/28 01:24:24;;;;;;;98.78;24.05;;;;;;;4.98;100.00;99398.69;5054411;28;20029;-79
2021/12/28 01:26:49;;;;;;;96.38;24.08;;;;;;;5.02;100.00;99391.34;5053846;28;20030;-79
2021/12/28 01:29:15;;;;;;;98.20;22.38;;;;;;;5.04;100.00;99386.75;5054613;28;20029;-79
2021/12/28 01:31:40;;;;;;;88.32;22.90;;;;;;;5.02;100.00;99389.53;5054106;28;20033;-79
2021/12/28 01:34:08;;;;;;;91.35;20.63;;;;;;;4.99;100.00;99386.34;5054636;28;20033;-79
2021/12/28 01:36:33;;;;;;;82.90;20.48;;;;;;;4.94;100.00;99387.59;5054673;28;20048;-78
2021/12/28 01:39:00;;;;;;;77.43;20.63;;;;;;;4.93;100.00;99387.72;5054156;28;20473;-78
2021/12/28 01:41:25;;;;;;;98.47;21.25;;;;;;;4.97;100.00;99377.72;5054542;28;20037;-78
2021/12/28 01:43:55;;;;;;;106.68;20.88;;;;;;;5.01;100.00;99387.84;5053892;28;20036;-79
2021/12/28 01:46:21;;;;;;;95.10;20.70;;;;;;;5.03;100.00;99379.81;5054617;28;20035;-78
2021/12/28 01:48:46;;;;;;;108.60;20.15;;;;;;;5.05;100.00;99383.16;5053833;28;20028;-78
2021/12/28 01:51:18;;;;;;;87.18;18.90;;;;;;;5.08;100.00;99388.97;5053891;28;20106;-79
2021/12/28 01:53:46;;;;;;;117.03;20.10;;;;;;;5.10;100.00;99384.38;5052283;28;20031;-79
2021/12/28 01:56:15;;;;;;;94.70;21.00;;;;;;;5.12;100.00;99387.72;5054156;28;20064;-78
2021/12/28 01:58:41;;;;;;;104.07;19.33;;;;;;;5.14;100.00;99384.13;5054210;28;20032;-78
2021/12/28 02:01:07;;;;;;;98.78;19.30;;;;;;;5.15;100.00;99385.78;5053508;28;20083;-78
2021/12/28 02:03:36;;;;;;;96.22;17.90;;;;;;;5.16;100.00;99390.91;5053811;28;20044;-78
2021/12/28 02:06:03;;;;;;;87.32;18.50;;;;;;;5.19;100.00;99387.16;5053484;28;20079;-78
2021/12/28 02:08:28;;;;;;;87.78;17.40;;;;;;;5.20;100.00;99386.19;5053605;28;20029;-78
2021/12/28 02:10:56;;;;;;;94.97;17.58;;;;;;;5.23;100.00;99391.19;5053119;28;20029;-78
2021/12/28 02:13:23;;;;;;;100.25;17.42;;;;;;;5.22;100.00;99377.16;5053581;28;20029;-78
2021/12/28 02:15:49;;;;;;;93.70;19.33;;;;;;;5.25;100.00;99378.69;5052067;28;20381;-78
2021/12/28 02:18:18;;;;;;;92.80;15.95;;;;;;;5.27;100.00;99376.75;5053543;28;20044;-78
2021/12/28 02:20:44;;;;;;;81.38;16.15;;;;;;;5.32;100.00;99373.69;5052311;28;20461;-78
2021/12/28 02:23:10;;;;;;;103.85;17.42;;;;;;;5.41;100.00;99375.47;5051773;28;20025;-78
2021/12/28 02:25:36;;;;;;;92.63;15.40;;;;;;;5.44;100.00;99376.03;5053205;28;20039;-79
2021/12/28 02:28:05;;;;;;;109.10;16.02;;;;;;;5.50;100.00;99379.91;5052355;28;20032;-78
2021/12/28 02:30:31;;;;;;;92.38;14.73;;;;;;;5.55;100.00;99372.38;5051908;28;20025;-78
2021/12/28 02:32:56;;;;;;;100.28;15.55;;;;;;;5.60;100.00;99379.91;5052364;28;20039;-78
2021/12/28 02:35:26;;;;;;;103.65;16.30;;;;;;;5.68;100.00;99384.44;5053096;28;20041;-78
2021/12/28 02:37:53;;;;;;;102.28;16.35;;;;;;;5.73;100.00;99375.13;5052630;28;20091;-79
2021/12/28 02:40:21;;;;;;;93.15;15.10;;;;;;;5.74;100.00;99370.69;5052954;28;20033;-78
2021/12/28 02:42:47;;;;;;;100.00;14.10;;;;;;;5.77;100.00;99371.22;5051525;28;20053;-78
2021/12/28 02:45:26;;;;;;;99.03;13.38;;;;;;;5.78;100.00;99375.53;5050805;28;20040;-77
2021/12/28 02:47:51;;;;;;;93.15;13.10;;;;;;;5.78;100.00;99364.16;5051994;28;20029;-78
2021/12/28 02:50:22;;;;;;;80.82;13.73;;;;;;;5.81;100.00;99371.78;5052794;28;20156;-78
2021/12/28 02:52:48;;;;;;;78.18;14.15;;;;;;;5.83;100.00;99361.88;5052631;28;20059;-78
2021/12/28 02:55:16;;;;;;;78.90;13.60;;;;;;;5.86;100.00;99364.25;5051685;28;20043;-79
2021/12/28 02:57:47;;;;;;;81.20;11.52;;;;;;;5.90;100.00;99362.97;5052865;28;20100;-78
2021/12/28 03:00:13;;;;;;;104.85;13.18;;;;;;;5.91;100.00;99362.00;5052092;28;20266;-78
2021/12/28 03:02:39;;;;;;;90.82;12.77;;;;;;;5.92;100.00;99355.72;5052641;28;20033;-78
2021/12/28 03:05:05;;;;;;;112.90;12.85;;;;;;;5.93;100.00;99356.59;5050442;28;20036;-78
2021/12/28 03:07:30;;;;;;;79.40;10.85;;;;;;;5.93;100.00;99352.13;5052174;28;20544;-78
2021/12/28 03:09:56;;;;;;;85.45;11.95;;;;;;;5.94;100.00;99352.94;5051944;28;20060;-78
2021/12/28 03:12:22;;;;;;;82.70;11.88;;;;;;;5.95;100.00;99350.16;5052661;28;20040;-78
2021/12/28 03:14:48;;;;;;;80.75;11.52;;;;;;;5.99;100.00;99350.75;5052214;28;20032;-78
2021/12/28 03:17:14;;;;;;;89.78;12.18;;;;;;;6.03;100.00;99340.72;5051924;28;20550;-78
2021/12/28 03:19:39;;;;;;;98.35;11.55;;;;;;;6.05;100.00;99344.06;5052215;28;20123;-77
2021/12/28 03:22:05;;;;;;;93.43;12.02;;;;;;;6.06;100.00;99341.28;5051887;28;20025;-78
2021/12/28 03:24:30;;;;;;;111.63;12.55;;;;;;;6.10;100.00;99342.63;5052029;28;20437;-79
2021/12/28 03:26:56;;;;;;;95.80;12.82;;;;;;;6.12;100.00;99331.91;5052090;28;20110;-79
2021/12/28 03:29:21;;;;;;;74.10;10.80;;;;;;;6.10;100.00;99329.41;5050502;28;20037;-79
2021/12/28 03:31:47;;;;;;;106.68;12.82;;;;;;;6.09;100.00;99322.50;5052007;28;20393;-80
2021/12/28 03:34:12;;;;;;;85.57;12.32;;;;;;;6.08;100.00;99320.00;5051523;28;20029;-80
2021/12/28 03:36:38;;;;;;;101.30;13.73;;;;;;;6.07;100.00;99313.88;5052373;28;20033;-80
2021/12/28 03:39:04;;;;;;;75.13;12.93;;;;;;;6.06;100.00;99309.59;5050205;28;20531;-80
2021/12/28 03:41:34;;;;;;;90.38;12.90;;;;;;;6.07;100.00;99315.69;5052257;28;20040;-80
2021/12/28 03:44:01;;;;;;;80.95;13.52;;;;;;;6.07;100.00;99316.50;5051427;28;20056;-80
2021/12/28 03:46:28;;;;;;;101.78;14.60;;;;;;;6.07;100.00;99302.50;5052312;28;20040;-80
2021/12/28 03:48:53;;;;;;;99.85;12.77;;;;;;;6.07;100.00;99303.31;5051991;28;20033;-80
2021/12/28 03:51:19;;;;;;;92.50;13.25;;;;;;;6.06;100.00;99303.44;5051278;28;20071;-80
2021/12/28 03:53:46;;;;;;;78.20;13.07;;;;;;;6.05;100.00;99300.00;5052184;28;20037;-80
2021/12/28 03:56:12;;;;;;;85.18;12.65;;;;;;;6.05;100.00;99300.00;5050320;28;20388;-80
2021/12/28 03:58:40;;;;;;;112.10;13.45;;;;;;;6.04;100.00;99298.31;5053204;28;20062;-80
2021/12/28 04:01:07;;;;;;;91.20;12.65;;;;;;;6.04;100.00;99303.59;5055305;28;20037;-80
2021/12/28 04:03:33;;;;;;;80.35;13.25;;;;;;;6.03;100.00;99298.47;5055940;28;20033;-80
2021/12/28 04:06:04;;;;;;;82.30;13.73;;;;;;;6.03;100.00;99304.59;5055912;28;20083;-80
2021/12/28 04:08:29;;;;;;;87.55;14.23;;;;;;;6.07;100.00;99297.22;5056306;28;20053;-80
2021/12/28 04:11:03;;;;;;;91.97;14.20;;;;;;;6.10;100.00;99297.72;5054821;28;20076;-79
2021/12/28 04:13:29;;;;;;;85.18;14.75;;;;;;;6.14;100.00;99293.00;5055986;28;20103;-79
2021/12/28 04:15:54;;;;;;;77.93;15.32;;;;;;;6.16;100.00;99288.38;5056182;28;20040;-79
2021/12/28 04:18:20;;;;;;;107.20;17.08;;;;;;;6.19;100.00;99285.44;5053807;28;20410;-79
2021/12/28 04:20:46;;;;;;;99.70;16.67;;;;;;;6.23;100.00;99281.53;5055596;28;20029;-79
2021/12/28 04:23:12;;;;;;;86.05;15.45;;;;;;;6.25;100.00;99276.09;5055224;28;20029;-79
2021/12/28 04:25:37;;;;;;;90.00;18.45;;;;;;;6.28;100.00;99275.81;5055234;28;20040;-79
2021/12/28 04:28:03;;;;;;;88.72;17.20;;;;;;;6.31;100.00;99276.31;5055540;28;20504;-79
2021/12/28 04:30:29;;;;;;;83.40;16.17;;;;;;;6.32;100.00;99272.72;5055256;28;20025;-79
2021/12/28 04:32:54;;;;;;;93.82;17.58;;;;;;;6.33;100.00;99274.38;5055905;28;20048;-79
2021/12/28 04:35:19;;;;;;;97.10;15.75;;;;;;;6.35;100.00;99261.84;5054999;28;20090;-79
2021/12/28 04:37:45;;;;;;;79.30;16.50;;;;;;;6.39;100.00;99266.81;5055784;28;20033;-79
2021/12/28 04:40:12;;;;;;;97.95;17.10;;;;;;;6.45;100.00;99267.06;5055304;28;20060;-79
2021/12/28 04:42:39;;;;;;;86.22;15.13;;;;;;;6.48;100.00;99265.94;5055796;28;20475;-79
2021/12/28 04:45:10;;;;;;;104.70;16.70;;;;;;;6.47;100.00;99262.44;5056337;28;20049;-79
2021/12/28 04:47:36;;;;;;;97.05;15.80;;;;;;;6.48;100.00;99264.13;5056280;28;20461;-80
2021/12/28 04:50:04;;;;;;;85.53;15.50;;;;;;;6.49;100.00;99262.28;5056220;28;20045;-80
2021/12/28 04:52:31;;;;;;;90.45;15.63;;;;;;;6.50;100.00;99248.94;5055751;28;20089;-81
2021/12/28 04:54:57;;;;;;;97.15;16.65;;;;;;;6.53;100.00;99247.81;5056727;28;20036;-80
2021/12/28 04:57:22;;;;;;;98.15;15.93;;;;;;;6.57;100.00;99238.59;5038331;28;20024;-80
2021/12/28 04:59:48;;;;;;;73.88;15.50;;;;;;;6.63;100.00;99247.75;5056144;28;20037;-81
2021/12/28 05:02:13;;;;;;;81.43;15.60;;;;;;;6.65;100.00;99243.13;5055227;28;20108;-81
2021/12/28 05:04:39;;;;;;;82.25;16.10;;;;;;;6.65;100.00;99243.94;5037285;28;20112;-81
2021/12/28 05:07:04;;;;;;;85.43;16.17;;;;;;;6.65;100.00;99243.13;5055192;28;20025;-79
2021/12/28 05:09:30;;;;;;;79.85;16.02;;;;;;;6.68;100.00;99237.53;5053847;28;20041;-80
2021/12/28 05:11:55;;;;;;;89.18;16.05;;;;;;;6.67;100.00;99239.34;5055153;28;20025;-79
2021/12/28 05:14:21;;;;;;;63.45;15.00;;;;;;;6.70;100.00;99231.13;5054724;28;20078;-79
2021/12/28 05:16:47;;;;;;;78.55;16.10;;;;;;;6.73;100.00;99229.13;5055016;28;20044;-80
2021/12/28 05:19:14;;;;;;;81.95;16.65;;;;;;;6.75;100.00;99232.44;5054465;28;20029;-80
2021/12/28 05:21:40;;;;;;;77.25;18.13;;;;;;;6.79;100.00;99226.72;5055487;28;20029;-81
2021/12/28 05:24:06;;;;;;;81.78;17.75;;;;;;;6.89;100.00;99230.06;5055112;28;20051;-81
2021/12/28 05:26:31;;;;;;;67.55;17.90;;;;;;;6.96;100.00;99232.94;5054470;28;20444;-81
2021/12/28 05:28:56;;;;;;;77.13;17.42;;;;;;;6.94;100.00;99228.78;5054595;28;20095;-80
2021/12/28 05:31:25;;;;;;;91.68;19.13;;;;;;;6.94;100.00;99223.50;5054116;28;20036;-80
2021/12/28 05:33:52;;;;;;;85.00;19.50;;;;;;;6.94;100.00;99213.78;5054937;28;20056;-81
2021/12/28 05:36:17;;;;;;;86.38;19.25;;;;;;;6.95;100.00;99209.31;5054628;28;20037;-80
2021/12/28 05:38:42;;;;;;;93.03;21.00;;;;;;;6.95;100.00;99204.81;5054006;28;20031;-80
2021/12/28 05:41:08;;;;;;;74.13;21.10;;;;;;;6.97;100.00;99210.81;5055096;28;20032;-80
2021/12/28 05:43:33;;;;;;;78.88;20.92;;;;;;;6.96;100.00;99205.69;5053154;28;20057;-80
2021/12/28 05:45:59;;;;;;;84.70;21.73;;;;;;;6.94;100.00;99203.19;5054697;28;20028;-80
2021/12/28 05:48:24;;;;;;;80.95;21.17;;;;;;;6.95;100.00;99202.19;5053818;28;20087;-79
2021/12/28 05:50:50;;;;;;;81.30;22.25;;;;;;;7.01;100.00;99204.19;5054270;28;20041;-81
2021/12/28 05:53:16;;;;;;;81.82;22.27;;;;;;;7.03;100.00;99194.31;5054328;28;20025;-80
2021/12/28 05:55:43;;;;;;;73.70;22.25;;;;;;;7.07;100.00;99192.19;5054348;28;20118;-81
2021/12/28 05:58:09;;;;;;;84.68;23.05;;;;;;;7.04;100.00;99185.38;5054314;28;20025;-81
2021/12/28 06:00:34;;;;;;;88.85;24.00;;;;;;;7.03;100.00;99182.88;5053822;28;20090;-81
2021/12/28 06:03:00;;;;;;;93.22;23.45;;;;;;;7.06;100.00;99175.50;5054114;28;20047;-80
2021/12/28 06:05:25;;;;;;;80.75;23.25;;;;;;;7.05;100.00;99173.00;5053294;28;20032;-81
2021/12/28 06:07:51;;;;;;;64.03;22.90;;;;;;;7.02;100.00;99174.13;5054379;28;20071;-80
2021/12/28 06:10:17;;;;;;;73.40;22.17;;;;;;;7.03;100.00;99169.66;5054287;28;20488;-81
2021/12/28 06:12:44;;;;;;;61.67;20.83;;;;;;;7.01;100.00;99158.44;5053669;28;20029;-81
2021/12/28 06:15:10;;;;;;;79.88;22.98;;;;;;;7.02;100.00;99160.09;5054096;28;20075;-80
2021/12/28 06:17:36;;;;;;;71.95;23.90;;;;;;;7.07;100.00;99155.16;5053250;28;20070;-80
2021/12/28 06:20:02;;;;;;;65.40;22.40;;;;;;;7.09;100.00;99158.50;5055810;28;20032;-80
2021/12/28 06:22:27;;;;;;;64.82;21.58;;;;;;;7.10;100.00;99162.78;5053356;28;20472;-80
2021/12/28 06:24:53;;;;;;;67.03;22.20;;;;;;;7.10;100.00;99164.59;5055421;28;20083;-80
2021/12/28 06:27:18;;;;;;;75.28;22.45;;;;;;;7.10;100.00;99152.19;5053356;28;20037;-78
2021/12/28 06:29:44;;;;;;;61.40;20.48;;;;;;;7.12;100.00;99155.53;5052538;28;20075;-79
2021/12/28 06:32:09;;;;;;;56.97;20.92;;;;;;;7.16;100.00;99158.66;5053250;28;20032;-77
2021/12/28 06:34:35;;;;;;;60.22;21.42;;;;;;;7.18;100.00;99156.69;5052209;28;20397;-78
2021/12/28 06:37:00;;;;;;;66.32;21.08;;;;;;;7.16;100.00;99154.19;5053402;28;20044;-78
2021/12/28 06:39:26;;;;;;;52.08;20.33;;;;;;;7.18;100.00;99154.03;5051127;28;20044;-78
2021/12/28 06:41:51;;;;;;;59.72;20.75;;;;;;;7.16;100.00;99142.81;5052179;28;20043;-77
2021/12/28 06:44:17;;;;;;;77.05;22.27;;;;;;;7.18;100.00;99148.75;5052808;28;20040;-78
2021/12/28 06:46:42;;;;;;;63.83;21.20;;;;;;;7.17;100.00;99147.13;5052334;28;20908;-77
2021/12/28 06:49:08;;;;;;;64.03;21.50;;;;;;;7.18;100.00;99141.66;5052665;28;20025;-78
2021/12/28 06:51:33;;;;;;;70.40;23.02;;;;;;;7.21;100.00;99145.78;5052270;28;20060;-76
2021/12/28 06:53:58;;;;;;;71.82;22.90;;;;;;;7.23;100.00;99138.53;5052753;28;20116;-79
2021/12/28 06:56:24;;;;;;;67.40;23.33;;;;;;;7.24;100.00;99142.84;5052614;28;20029;-80
2021/12/28 06:58:50;;;;;;;78.05;24.58;;;;;;;7.20;100.00;99144.16;5052068;28;20025;-76
2021/12/28 07:01:16;;;;;;;82.32;24.17;;;;;;;7.18;100.00;99146.94;5052456;28;20040;-78
2021/12/28 07:03:41;;;;;;;68.95;23.70;;;;;;;7.18;100.00;99143.47;5052009;28;20036;-76
2021/12/28 07:06:07;;;;;;;81.65;27.75;;;;;;;7.17;100.00;99144.47;5052264;28;20037;-77
2021/12/28 07:08:34;;;;;;;87.72;26.85;;;;;;;7.16;100.00;99143.63;5050732;28;20033;-76
2021/12/28 07:10:59;;;;;;;81.28;27.33;;;;;;;7.24;100.00;99134.91;5052239;28;20029;-75
2021/12/28 07:13:25;;;;;;;73.82;26.05;;;;;;;7.24;100.00;99119.03;5052225;28;20044;-77
2021/12/28 07:15:51;;;;;;;91.35;30.00;;;;;;;7.23;100.00;99115.53;5051665;28;20040;-76
2021/12/28 07:18:17;;;;;;;85.35;28.05;;;;;;;7.23;100.00;99112.91;5052092;28;20040;-76
2021/12/28 07:20:42;;;;;;;79.45;25.13;;;;;;;7.23;100.00;99123.47;5050256;28;20029;-76
2021/12/28 07:23:08;;;;;;;74.97;25.23;;;;;;;7.27;100.00;99123.16;5052266;28;20112;-78
2021/12/28 07:25:33;;;;;;;83.78;25.40;;;;;;;7.27;100.00;99125.81;5051577;28;20036;-77
2021/12/28 07:27:59;;;;;;;61.97;23.42;;;;;;;7.30;100.00;99122.84;5052320;28;20555;-75
2021/12/28 07:30:24;;;;;;;68.72;23.05;;;;;;;7.29;100.00;99124.66;5051974;28;20091;-80
2021/12/28 07:32:50;;;;;;;72.28;24.77;;;;;;;7.28;100.00;99122.19;5051353;28;20065;-75
2021/12/28 07:35:15;;;;;;;74.22;25.08;;;;;;;7.32;100.00;99123.53;5050517;28;20421;-75
2021/12/28 07:37:41;;;;;;;73.85;24.83;;;;;;;7.32;100.00;99118.25;5051517;28;20052;-75
2021/12/28 07:40:10;;;;;;;73.70;23.45;;;;;;;7.29;100.00;99114.09;5052110;28;20029;-75
2021/12/28 07:42:36;;;;;;;90.85;27.20;;;;;;;7.31;100.00;99106.81;5051355;28;20057;-77
2021/12/28 07:45:09;;;;;;;67.55;24.13;;;;;;;7.31;100.00;99103.34;5051859;28;20084;-77
2021/12/28 07:47:35;;;;;;;69.43;25.40;;;;;;;7.31;100.00;99103.34;5051131;28;20044;-85
2021/12/28 07:50:00;;;;;;;73.28;25.80;;;;;;;7.31;100.00;99108.63;5051695;28;20053;-76
2021/12/28 07:52:26;;;;;;;67.55;24.27;;;;;;;7.32;100.00;99105.00;5052017;28;20083;-76
2021/12/28 07:54:51;;;;;;;79.88;25.00;;;;;;;7.34;100.00;99101.19;5050228;28;20500;-77
2021/12/28 07:57:16;;;;;;;67.13;24.45;;;;;;;7.41;100.00;99096.09;5050796;28;20393;-77
2021/12/28 07:59:42;;;;;;;64.70;23.58;;;;;;;7.38;100.00;99086.66;5051274;28;20051;-78
2021/12/28 08:02:07;;;;;;;66.78;23.83;;;;;;;7.38;100.00;99093.78;5051722;28;20491;-83
2021/12/28 08:04:33;;;;;;;79.20;24.08;;;;;;;7.39;100.00;99090.97;5051640;28;20029;-76
2021/12/28 08:06:58;;;;;;;67.70;22.75;;;;;;;7.38;100.00;99089.31;5051178;28;20453;-78
2021/12/28 08:09:24;;;;;;;63.83;22.70;;;;;;;7.43;100.00;99085.34;5051738;28;20206;-78
2021/12/28 08:11:49;;;;;;;55.95;21.38;;;;;;;7.41;100.00;99078.41;5051272;28;20112;-77
2021/12/28 08:14:15;;;;;;;63.92;21.27;;;;;;;7.42;100.00;99084.53;5051939;28;20051;-79
2021/12/28 08:16:41;;;;;;;58.30;20.67;;;;;;;7.41;100.00;99075.75;5051401;28;20059;-76
2021/12/28 08:19:08;;;;;;;58.30;20.52;;;;;;;7.40;100.00;99082.06;5050515;28;20116;-77
2021/12/28 08:21:34;;;;;;;67.05;21.23;;;;;;;7.41;100.00;99085.50;5051769;28;20115;-79
2021/12/28 08:23:59;;;;;;;58.65;19.45;;;;;;;7.44;100.00;99079.09;5051071;28;20079;-80
2021/12/28 08:26:25;;;;;;;51.25;19.13;;;;;;;7.44;100.00;99079.91;5050297;28;20033;-80
2021/12/28 08:28:50;;;;;;;55.20;19.38;;;;;;;7.48;100.00;99075.94;5050792;28;20025;-81
2021/12/28 08:31:16;;;;;;;52.15;19.60;;;;;;;7.48;100.00;99064.50;5051576;28;20029;-77
2021/12/28 08:33:41;;;;;;;55.95;20.08;;;;;;;7.47;100.00;99068.16;5050699;28;20060;-77
2021/12/28 08:36:07;;;;;;;54.40;18.83;;;;;;;7.49;100.00;99068.81;5050197;28;20037;-79
2021/12/28 08:38:32;;;;;;;52.60;18.77;;;;;;;7.52;100.00;99071.13;5050416;28;20538;-82
2021/12/28 08:40:59;;;;;;;48.25;18.73;;;;;;;7.52;100.00;99068.50;5050922;28;20059;-81
2021/12/28 08:43:25;;;;;;;46.05;17.25;;;;;;;7.51;100.00;99072.97;5050953;28;20104;-80
2021/12/28 08:45:51;;;;;;;49.92;18.65;;;;;;;7.52;100.00;99071.13;5053600;28;20545;-79
2021/12/28 08:48:16;;;;;;;44.10;17.10;;;;;;;7.55;100.00;99063.72;5046840;28;20217;-80
2021/12/28 08:50:44;;;;;;;43.22;17.23;;;;;;;7.58;100.00;99059.91;5051615;28;20053;-81
2021/12/28 08:53:11;;;;;;;41.80;16.23;;;;;;;7.58;100.00;99063.41;5054042;28;20045;-80
2021/12/28 08:55:37;;;;;;;40.63;15.70;;;;;;;7.60;100.00;99063.22;5053842;28;20041;-79
2021/12/28 08:58:03;;;;;;;39.10;16.00;;;;;;;7.66;100.00;99062.56;5053036;28;20028;-83
2021/12/28 09:00:32;;;;;;;40.05;16.52;;;;;;;7.67;100.00;99058.91;5054150;28;20040;-77
2021/12/28 09:02:58;;;;;;;30.38;15.32;;;;;;;7.72;100.00;99055.81;5053305;28;20029;-79
2021/12/28 09:05:25;;;;;;;32.70;16.45;;;;;;;7.71;100.00;99049.66;5052061;28;20037;-77
2021/12/28 09:07:52;;;;;;;34.40;16.52;;;;;;;7.73;100.00;99052.16;5052391;28;20029;-78
2021/12/28 09:10:18;;;;;;;24.77;13.68;;;;;;;7.77;100.00;99045.53;5054591;28;20464;-84
2021/12/28 09:12:43;;;;;;;30.63;14.63;;;;;;;7.79;100.00;99037.44;5051184;28;20117;-85
2021/12/28 09:15:10;;;;;;;27.52;14.68;;;;;;;7.79;100.00;99053.31;5054641;28;20082;-80
2021/12/28 09:17:37;;;;;;;23.65;13.95;;;;;;;7.80;100.00;99033.78;5053259;28;20363;-79
2021/12/28 09:20:10;;;;;;;28.40;13.88;;;;;;;7.82;100.00;99034.44;5052889;28;20025;-78
2021/12/28 09:22:35;;;;;;;25.45;13.75;;;;;;;7.87;100.00;99027.66;5055197;28;20031;-78
2021/12/28 09:25:01;;;;;;;24.02;13.63;;;;;;;7.86;100.00;99025.19;5053069;28;20033;-78
2021/12/28 09:27:26;;;;;;;22.17;13.60;;;;;;;7.86;100.00;99020.72;5054004;28;20418;-78
2021/12/28 09:29:52;;;;;;;22.63;13.48;;;;;;;7.90;100.00;99022.03;5052677;28;20033;-83
2021/12/28 09:32:18;;;;;;;19.30;11.73;;;;;;;7.90;100.00;99016.75;5053384;28;20477;-82
2021/12/28 09:34:45;;;;;;;18.65;12.07;;;;;;;7.89;100.00;99020.38;5053381;28;20051;-79
2021/12/28 09:37:11;;;;;;;18.40;11.60;;;;;;;7.89;100.00;99023.03;5051603;28;20388;-79
2021/12/28 09:39:36;;;;;;;19.40;10.48;;;;;;;7.91;100.00;99017.56;5053266;28;20029;-79
2021/12/28 09:42:04;;;;;;;20.30;11.02;;;;;;;7.91;100.00;99017.56;5052684;28;20040;-76
2021/12/28 09:44:31;;;;;;;15.57;10.15;;;;;;;7.91;100.00;99013.09;5052959;28;20066;-81
2021/12/28 09:46:58;;;;;;;17.27;10.13;;;;;;;7.90;100.00;99013.28;5052531;28;20029;-78
2021/12/28 09:49:25;;;;;;;20.45;10.57;;;;;;;7.90;100.00;99015.94;5053558;28;20035;-79
2021/12/28 09:51:52;;;;;;;20.08;10.80;;;;;;;7.92;100.00;99003.34;5051400;28;20065;-80
2021/12/28 09:54:17;;;;;;;18.73;10.68;;;;;;;7.91;100.00;98999.03;5053324;28;20516;-80
2021/12/28 09:56:43;;;;;;;22.45;11.07;;;;;;;7.90;100.00;99005.34;5053236;28;20029;-81
2021/12/28 09:59:09;;;;;;;15.05;9.73;;;;;;;7.91;100.00;98988.44;5052973;28;20116;-82
2021/12/28 10:01:34;;;;;;;15.52;9.38;;;;;;;7.92;100.00;98992.75;5053074;28;20036;-81
2021/12/28 10:04:01;;;;;;;15.00;9.98;;;;;;;7.94;100.00;98993.38;5060564;28;20029;-83
2021/12/28 10:06:28;;;;;;;13.32;9.50;;;;;;;8.00;100.00;98997.19;5064478;28;20036;-80
2021/12/28 10:09:05;;;;;;;12.20;8.90;;;;;;;8.00;100.00;98990.09;5055826;28;20052;-78
2021/12/28 10:11:32;;;;;;;12.18;8.02;;;;;;;8.01;100.00;98994.38;5053435;28;20025;-76
2021/12/28 10:14:13;;;;;;;11.43;8.18;;;;;;;8.06;100.00;98986.78;5052245;28;20040;-80
2021/12/28 10:16:54;;;;;;;10.70;7.80;;;;;;;8.08;100.00;98973.34;5051427;28;20124;-84
2021/12/28 10:19:31;;;;;;;7.85;6.22;;;;;;;8.09;100.00;98975.84;5051032;28;20029;-84
2021/12/28 10:21:57;;;;;;;7.18;5.10;;;;;;;8.10;100.00;98976.66;5051868;28;20034;-80
2021/12/28 10:24:41;;;;;;;10.00;5.00;;;;;;;8.10;100.00;98972.19;5051263;28;20495;-88
2021/12/28 10:27:12;;;;;;;7.38;4.95;;;;;;;8.09;100.00;98970.53;5051792;28;20029;-81
2021/12/28 10:29:37;;;;;;;8.43;4.40;;;;;;;8.10;100.00;98966.88;5052504;28;20041;-80
2021/12/28 10:32:16;;;;;;;4.95;3.63;;;;;;;8.11;100.00;98965.88;5051796;28;20033;-79
2021/12/28 10:34:49;;;;;;;5.25;3.75;;;;;;;8.07;100.00;98964.56;5052176;28;20079;-83
2021/12/28 10:37:20;;;;;;;4.90;3.50;;;;;;;8.06;100.00;98962.09;5051524;28;20061;-81
2021/12/28 10:39:48;;;;;;;4.25;3.40;;;;;;;8.04;100.00;98959.59;5052268;28;20025;-81
2021/12/28 10:42:42;;;;;;;4.22;3.28;;;;;;;8.01;100.00;98959.94;5051490;28;20036;-82
2021/12/28 10:45:11;;;;;;;3.53;3.05;;;;;;;8.00;100.00;98946.88;5051302;28;20055;-78
2021/12/28 10:47:37;;;;;;;5.15;3.20;;;;;;;7.99;100.00;98948.72;5051065;28;20044;-77
2021/12/28 10:50:21;;;;;;;4.72;2.72;;;;;;;8.02;100.00;98936.97;5051341;28;20029;-77
2021/12/28 10:52:51;;;;;;;4.03;2.60;;;;;;;8.03;100.00;98939.44;5051972;28;20047;-78
2021/12/28 10:55:26;;;;;;;7.88;2.90;;;;;;;8.01;100.00;98933.47;5051046;28;20033;-80
2021/12/28 10:57:53;;;;;;;4.85;2.50;;;;;;;7.98;100.00;98935.63;5051456;28;20082;-80
2021/12/28 11:00:30;;;;;;;7.68;2.83;;;;;;;7.94;100.00;98937.78;5051865;28;20029;-78
2021/12/28 11:03:16;;;;;;;7.88;2.92;;;;;;;7.91;100.00;98932.81;5050287;28;20055;-79
2021/12/28 11:05:42;;;;;;;8.18;2.83;;;;;;;7.90;100.00;98932.00;5052042;28;20112;-76
2021/12/28 11:08:08;;;;;;;8.32;2.30;;;;;;;7.89;100.00;98924.22;5050630;28;20063;-76
2021/12/28 11:10:39;;;;;;;10.00;2.40;;;;;;;7.88;100.00;98931.34;5051945;28;20036;-79
2021/12/28 11:13:04;;;;;;;13.63;2.43;;;;;;;7.86;100.00;98928.03;5051750;28;20029;-76
2021/12/28 11:15:36;;;;;;;12.43;2.88;;;;;;;7.83;100.00;98925.72;5051934;28;20272;-78